Time;durP1;ratioP1;P1;durP2;ratioP2;P2;SDS_P1;SDS_P2;PMS_P1;PMS_P2;Temp;Humidity;BMP_temperature;BMP_pressure;BME280_temperature;BME280_humidity;BME280_pressure;Samples;Min_cycle;Max_cycle;Signal;HPM_P1;HPM_P2
2023/05/23 00:01:38;;;;;;;;;;;;;;;10.90;100.00;101882.25;4993587;28;19960;-67
2023/05/23 00:04:04;;;;;;;;;;;;;;;10.88;100.00;101880.69;4994332;28;20004;-65
2023/05/23 00:06:30;;;;;;;;;;;;;;;10.85;100.00;101887.16;4976807;28;20001;-66
2023/05/23 00:08:56;;;;;;;;;;;;;;;10.82;100.00;101887.44;4944202;28;19920;-66
2023/05/23 00:11:25;;;;;;;;;;;;;;;10.78;100.00;101886.84;4993157;28;20017;-66
2023/05/23 00:13:54;;;;;;;;;;;;;;;10.74;100.00;101888.13;4993190;28;20016;-66
2023/05/23 00:16:20;;;;;;;;;;;;;;;10.74;100.00;101884.59;4993501;28;20024;-67
2023/05/23 00:18:46;;;;;;;;;;;;;;;10.69;100.00;101882.31;4993286;28;20020;-67
2023/05/23 00:21:12;;;;;;;;;;;;;;;10.67;100.00;101881.63;4976307;28;19917;-66
2023/05/23 00:23:41;;;;;;;;;;;;;;;10.65;100.00;101883.56;4993679;28;19953;-67
2023/05/23 00:26:06;;;;;;;;;;;;;;;10.63;100.00;101876.72;4993806;28;19960;-66
2023/05/23 00:28:32;;;;;;;;;;;;;;;10.60;100.00;101877.81;4993515;28;20353;-65
2023/05/23 00:30:57;;;;;;;;;;;;;;;10.62;100.00;101878.53;4993438;28;19914;-66
2023/05/23 00:33:22;;;;;;;;;;;;;;;10.59;100.00;101870.81;4993416;28;19914;-65
2023/05/23 00:35:48;;;;;;;;;;;;;;;10.57;100.00;101871.94;4993042;28;19913;-64
2023/05/23 00:38:13;;;;;;;;;;;;;;;10.56;100.00;101879.06;4992838;28;20374;-67
2023/05/23 00:40:39;;;;;;;;;;;;;;;10.54;100.00;101867.72;4992745;28;19968;-66
2023/05/23 00:43:05;;;;;;;;;;;;;;;10.54;100.00;101873.88;4993505;28;19914;-65
2023/05/23 00:45:32;;;;;;;;;;;;;;;10.55;100.00;101874.72;4993066;28;20348;-65
2023/05/23 00:48:00;;;;;;;;;;;;;;;10.53;100.00;101884.69;4992923;28;19917;-65
2023/05/23 00:50:29;;;;;;;;;;;;;;;10.51;100.00;101873.31;4992962;28;19918;-66
2023/05/23 00:52:56;;;;;;;;;;;;;;;10.49;100.00;101875.28;4992824;28;19937;-66
2023/05/23 00:55:22;;;;;;;;;;;;;;;10.46;100.00;101876.38;4993033;28;20286;-67
2023/05/23 00:57:47;;;;;;;;;;;;;;;10.47;100.00;101877.22;4992944;28;20398;-65
2023/05/23 01:00:14;;;;;;;;;;;;;;;10.45;100.00;101873.84;4992987;28;19941;-65
2023/05/23 01:02:43;;;;;;;;;;;;;;;10.44;100.00;101875.69;4992953;28;19918;-68
2023/05/23 01:05:16;;;;;;;;;;;;;;;10.43;100.00;101870.50;4975509;28;19914;-66
2023/05/23 01:07:42;;;;;;;;;;;;;;;10.44;100.00;101877.50;4992720;28;20456;-65
2023/05/23 01:10:08;;;;;;;;;;;;;;;10.44;100.00;101880.16;4992872;28;19965;-66
2023/05/23 01:12:45;;;;;;;;;;;;;;;10.44;100.00;101877.50;4992706;28;20358;-65
2023/05/23 01:15:12;;;;;;;;;;;;;;;10.42;100.00;101876.78;4992846;28;19914;-67
2023/05/23 01:17:43;;;;;;;;;;;;;;;10.42;100.00;101879.47;4992812;28;19953;-64
2023/05/23 01:20:15;;;;;;;;;;;;;;;10.42;100.00;101882.97;4992497;28;20266;-63
2023/05/23 01:22:47;;;;;;;;;;;;;;;10.41;100.00;101888.44;4992807;28;19918;-65
2023/05/23 01:25:23;;;;;;;;;;;;;;;10.39;100.00;101880.53;4992527;28;19994;-65
2023/05/23 01:27:51;;;;;;;;;;;;;;;10.38;100.00;101878.00;4995323;28;20384;-64
2023/05/23 01:30:18;;;;;;;;;;;;;;;10.39;100.00;101875.22;4996350;28;19921;-65
2023/05/23 01:32:45;;;;;;;;;;;;;;;10.39;100.00;101877.88;4962977;28;20266;-64
2023/05/23 01:35:10;;;;;;;;;;;;;;;10.37;100.00;101871.84;4995018;28;19957;-64
2023/05/23 01:37:36;;;;;;;;;;;;;;;10.37;100.00;101879.00;4996247;28;19964;-64
2023/05/23 01:40:01;;;;;;;;;;;;;;;10.37;100.00;101881.66;4996190;28;20389;-63
2023/05/23 01:42:27;;;;;;;;;;;;;;;10.37;100.00;101881.66;4996025;28;19914;-65
2023/05/23 01:44:53;;;;;;;;;;;;;;;10.37;100.00;101885.16;4995840;28;19940;-65
2023/05/23 01:47:21;;;;;;;;;;;;;;;10.38;100.00;101878.84;4995815;28;19924;-65
2023/05/23 01:49:46;;;;;;;;;;;;;;;10.40;100.00;101876.06;4996281;28;19917;-64
2023/05/23 01:52:12;;;;;;;;;;;;;;;10.44;100.00;101882.81;4995942;28;20413;-65
2023/05/23 01:54:42;;;;;;;;;;;;;;;10.45;100.00;101879.19;4995952;28;20362;-64
2023/05/23 01:57:07;;;;;;;;;;;;;;;10.47;100.00;101879.91;4995852;28;19914;-63
2023/05/23 01:59:33;;;;;;;;;;;;;;;10.49;100.00;101877.94;4995632;28;20235;-64
2023/05/23 02:01:58;;;;;;;;;;;;;;;10.50;100.00;101884.94;4995832;28;20378;-64
2023/05/23 02:04:23;;;;;;;;;;;;;;;10.51;100.00;101881.31;4995814;28;20277;-64
2023/05/23 02:06:49;;;;;;;;;;;;;;;10.54;100.00;101878.38;4994415;28;19953;-65
2023/05/23 02:09:15;;;;;;;;;;;;;;;10.56;100.00;101884.41;4996228;28;20009;-64
2023/05/23 02:11:40;;;;;;;;;;;;;;;10.59;100.00;101881.47;4995784;28;20259;-64
2023/05/23 02:14:06;;;;;;;;;;;;;;;10.62;100.00;101886.53;4995767;28;19961;-65
2023/05/23 02:16:32;;;;;;;;;;;;;;;10.66;100.00;101876.44;4995639;28;20393;-66
2023/05/23 02:18:57;;;;;;;;;;;;;;;10.70;100.00;101877.88;4995543;28;19944;-66
2023/05/23 02:21:23;;;;;;;;;;;;;;;10.72;100.00;101874.09;4995722;28;20282;-66
2023/05/23 02:23:48;;;;;;;;;;;;;;;10.75;100.00;101872.97;4995615;28;19997;-64
2023/05/23 02:26:15;;;;;;;;;;;;;;;10.78;100.00;101868.22;4995360;28;20280;-64
2023/05/23 02:28:40;;;;;;;;;;;;;;;10.80;100.00;101871.56;4995228;28;19913;-65
2023/05/23 02:31:05;;;;;;;;;;;;;;;10.80;100.00;101868.06;4995339;28;20329;-65
2023/05/23 02:33:31;;;;;;;;;;;;;;;10.81;100.00;101859.94;4995370;28;19914;-65
2023/05/23 02:35:56;;;;;;;;;;;;;;;10.88;100.00;101875.38;4995227;28;19969;-65
2023/05/23 02:38:22;;;;;;;;;;;;;;;10.94;100.00;101870.31;4994543;28;20016;-66
2023/05/23 02:40:49;;;;;;;;;;;;;;;11.02;100.00;101877.66;4994936;28;19921;-65
2023/05/23 02:43:14;;;;;;;;;;;;;;;11.08;100.00;101871.75;4994637;28;20281;-64
2023/05/23 02:45:41;;;;;;;;;;;;;;;11.13;100.00;101873.03;4994918;28;19924;-64
2023/05/23 02:48:07;;;;;;;;;;;;;;;11.18;100.00;101861.94;4995199;28;19918;-64
2023/05/23 02:50:32;;;;;;;;;;;;;;;11.23;100.00;101865.03;4994963;28;19940;-65
2023/05/23 02:52:58;;;;;;;;;;;;;;;11.26;100.00;101859.41;4994935;28;19920;-66
2023/05/23 02:55:23;;;;;;;;;;;;;;;11.48;100.00;101863.63;4994959;28;19964;-65
2023/05/23 02:57:48;;;;;;;;;;;;;;;12.71;100.00;101865.19;4993451;28;19914;-65
2023/05/23 03:00:14;;;;;;;;;;;;;;;14.55;100.00;101867.03;4994374;28;20269;-65
2023/05/23 03:02:40;;;;;;;;;;;;;;;16.41;100.00;101864.53;4994555;28;19969;-65
2023/05/23 03:05:05;;;;;;;;;;;;;;;17.65;90.55;101859.09;4994803;28;19968;-65
2023/05/23 03:07:32;;;;;;;;;;;;;;;18.67;84.27;101857.47;4995291;28;19913;-64
2023/05/23 03:09:58;;;;;;;;;;;;;;;19.24;80.61;101862.03;4994380;28;19961;-65
2023/05/23 03:12:23;;;;;;;;;;;;;;;19.45;78.78;101859.34;4994261;28;19913;-65
2023/05/23 03:14:49;;;;;;;;;;;;;;;19.56;78.03;101860.69;4994429;28;19921;-64
2023/05/23 03:17:15;;;;;;;;;;;;;;;19.56;76.55;101863.41;4976801;28;19952;-66
2023/05/23 03:19:40;;;;;;;;;;;;;;;19.54;73.91;101853.81;4994249;28;19918;-65
2023/05/23 03:22:05;;;;;;;;;;;;;;;19.86;74.31;101861.34;4994487;28;19914;-65
2023/05/23 03:24:31;;;;;;;;;;;;;;;20.29;71.92;101862.06;4994137;28;20308;-64
2023/05/23 03:26:56;;;;;;;;;;;;;;;19.57;73.85;101861.53;4994319;28;19913;-65
2023/05/23 03:29:21;;;;;;;;;;;;;;;18.49;77.97;101857.00;4994016;28;19993;-64
2023/05/23 03:31:47;;;;;;;;;;;;;;;17.62;80.84;101860.25;4993999;28;20021;-65
2023/05/23 03:34:12;;;;;;;;;;;;;;;17.36;82.14;101854.44;4994306;28;19914;-67
2023/05/23 03:36:38;;;;;;;;;;;;;;;17.14;80.90;101860.66;4993962;28;19965;-65
2023/05/23 03:39:03;;;;;;;;;;;;;;;16.45;82.09;101862.34;4993822;28;20004;-64
2023/05/23 03:41:28;;;;;;;;;;;;;;;15.71;84.57;101859.84;4993807;28;19921;-65
2023/05/23 03:43:54;;;;;;;;;;;;;;;15.25;88.53;101860.50;4993642;28;19993;-65
2023/05/23 03:46:19;;;;;;;;;;;;;;;15.10;90.15;101858.47;4993957;28;19949;-64
2023/05/23 03:48:45;;;;;;;;;;;;;;;14.96;92.05;101855.59;4993336;28;20444;-64
2023/05/23 03:51:12;;;;;;;;;;;;;;;15.67;94.03;101860.38;4993647;28;20004;-64
2023/05/23 03:53:37;;;;;;;;;;;;;;;17.30;84.20;101860.53;4993650;28;19914;-64
2023/05/23 03:56:03;;;;;;;;;;;;;;;18.85;77.90;101863.31;4993753;28;20012;-65
2023/05/23 03:58:28;;;;;;;;;;;;;;;20.00;71.14;101859.59;4993478;28;19921;-66
2023/05/23 04:00:53;;;;;;;;;;;;;;;20.32;68.11;101858.94;4993797;28;19943;-65
2023/05/23 04:03:19;;;;;;;;;;;;;;;20.44;67.75;101859.25;4993650;28;20396;-65
2023/05/23 04:05:44;;;;;;;;;;;;;;;20.59;66.53;101861.81;4993247;28;19914;-64
2023/05/23 04:08:10;;;;;;;;;;;;;;;20.64;66.05;101870.16;4988827;28;19969;-64
2023/05/23 04:10:35;;;;;;;;;;;;;;;20.82;66.59;101861.50;4965172;28;19953;-64
2023/05/23 04:13:00;;;;;;;;;;;;;;;21.09;64.49;101863.19;4989825;28;19965;-66
2023/05/23 04:15:26;;;;;;;;;;;;;;;21.34;63.21;101867.03;4992789;28;19929;-65
2023/05/23 04:17:52;;;;;;;;;;;;;;;21.67;63.25;101855.34;4992849;28;19929;-64
2023/05/23 04:20:17;;;;;;;;;;;;;;;22.17;60.98;101847.59;4992889;28;19922;-65
2023/05/23 04:22:43;;;;;;;;;;;;;;;22.45;57.25;101844.59;4992841;28;19913;-66
2023/05/23 04:25:08;;;;;;;;;;;;;;;22.40;56.00;101850.66;4992831;28;19918;-68
2023/05/23 04:27:34;;;;;;;;;;;;;;;22.21;56.67;101855.09;4992773;28;19914;-69
2023/05/23 04:29:59;;;;;;;;;;;;;;;22.09;57.17;101853.25;5002461;28;20012;-69
2023/05/23 04:32:25;;;;;;;;;;;;;;;21.98;58.28;101852.00;5000949;28;19914;-64
2023/05/23 04:34:51;;;;;;;;;;;;;;;21.93;58.17;101852.63;4992816;28;19960;-65
2023/05/23 04:37:20;;;;;;;;;;;;;;;22.17;57.85;101855.75;4993802;28;19920;-64
2023/05/23 04:39:46;;;;;;;;;;;;;;;22.50;55.96;101852.91;4993109;28;19914;-64
2023/05/23 04:42:11;;;;;;;;;;;;;;;22.50;55.25;101851.03;4992851;28;20417;-62
2023/05/23 04:44:37;;;;;;;;;;;;;;;22.53;55.29;101844.34;4992675;28;19918;-63
2023/05/23 04:47:02;;;;;;;;;;;;;;;22.41;55.50;101860.47;4992826;28;19922;-68
2023/05/23 04:49:28;;;;;;;;;;;;;;;22.45;56.13;101853.56;4986554;28;20287;-63
2023/05/23 04:51:53;;;;;;;;;;;;;;;22.63;56.46;101854.75;4973555;28;20439;-63
2023/05/23 04:54:19;;;;;;;;;;;;;;;22.93;56.25;101849.63;4966230;28;20100;-66
2023/05/23 04:56:44;;;;;;;;;;;;;;;23.29;55.33;101859.81;4973380;28;19961;-63
2023/05/23 04:59:10;;;;;;;;;;;;;;;23.38;53.54;101853.88;4973251;28;19918;-64
2023/05/23 05:01:39;;;;;;;;;;;;;;;23.13;53.53;101850.31;4976318;28;20000;-64
2023/05/23 05:04:04;;;;;;;;;;;;;;;22.97;54.42;101850.84;4977119;28;19941;-64
2023/05/23 05:06:29;;;;;;;;;;;;;;;22.78;54.94;101847.16;4976846;28;20421;-64
2023/05/23 05:08:55;;;;;;;;;;;;;;;22.38;55.74;101850.06;4977138;28;19914;-63
2023/05/23 05:11:20;;;;;;;;;;;;;;;21.90;57.87;101844.91;4977143;28;19914;-63
2023/05/23 05:13:46;;;;;;;;;;;;;;;21.50;59.17;101846.00;4976234;28;20263;-64
2023/05/23 05:16:11;;;;;;;;;;;;;;;20.46;62.21;101846.34;4976841;28;19914;-64
2023/05/23 05:18:38;;;;;;;;;;;;;;;19.28;68.38;101840.88;4976830;28;20381;-64
2023/05/23 05:21:03;;;;;;;;;;;;;;;18.17;71.54;101837.50;4959296;28;19945;-64
2023/05/23 05:23:30;;;;;;;;;;;;;;;17.40;77.42;101845.00;4976513;28;19914;-65
2023/05/23 05:25:55;;;;;;;;;;;;;;;16.98;81.11;101856.22;4976774;28;20301;-64
2023/05/23 05:28:21;;;;;;;;;;;;;;;16.71;84.11;101844.94;4976952;28;19914;-64
2023/05/23 05:30:47;;;;;;;;;;;;;;;16.24;87.53;101853.03;4976770;28;19918;-64
2023/05/23 05:33:12;;;;;;;;;;;;;;;15.97;89.59;101845.38;4977999;28;20362;-65
2023/05/23 05:35:37;;;;;;;;;;;;;;;15.91;88.31;101840.69;4979404;28;19918;-66
2023/05/23 05:38:03;;;;;;;;;;;;;;;15.93;89.28;101839.50;4977296;28;19914;-64
2023/05/23 05:40:29;;;;;;;;;;;;;;;16.02;87.89;101848.38;4981080;28;20053;-64
2023/05/23 05:42:55;;;;;;;;;;;;;;;16.14;87.81;101830.88;4981036;28;19914;-65
2023/05/23 05:45:21;;;;;;;;;;;;;;;16.24;87.50;101831.53;4986764;28;19996;-65
2023/05/23 05:47:46;;;;;;;;;;;;;;;16.33;87.65;101830.47;5005481;28;19924;-67
2023/05/23 05:50:12;;;;;;;;;;;;;;;16.42;86.48;101821.34;5017054;28;20000;-65
2023/05/23 05:52:38;;;;;;;;;;;;;;;16.50;85.96;101825.03;5015864;28;19933;-65
2023/05/23 05:55:10;;;;;;;;;;;;;;;16.55;86.15;101828.03;5015352;28;20008;-67
2023/05/23 05:57:37;;;;;;;;;;;;;;;16.63;85.07;101826.13;5015633;28;19913;-67
2023/05/23 06:00:10;;;;;;;;;;;;;;;16.58;83.77;101827.69;5015238;28;19921;-67
2023/05/23 06:02:36;;;;;;;;;;;;;;;16.59;83.95;101823.97;5015521;28;19914;-67
2023/05/23 06:05:01;;;;;;;;;;;;;;;16.65;84.20;101825.94;5000576;28;19968;-65
2023/05/23 06:07:26;;;;;;;;;;;;;;;16.70;84.50;101831.66;5005815;28;20304;-67
2023/05/23 06:09:52;;;;;;;;;;;;;;;16.71;84.67;101823.41;5006825;28;20008;-66
2023/05/23 06:12:17;;;;;;;;;;;;;;;16.72;84.16;101822.41;5004503;28;20076;-67
2023/05/23 06:14:42;;;;;;;;;;;;;;;16.70;84.47;101820.91;5001475;28;19957;-66
2023/05/23 06:17:08;;;;;;;;;;;;;;;16.70;84.81;101815.53;5001388;28;19924;-66
2023/05/23 06:19:33;;;;;;;;;;;;;;;16.71;84.26;101822.59;5000499;28;20350;-66
2023/05/23 06:21:59;;;;;;;;;;;;;;;16.77;84.42;101821.03;4995268;28;19995;-67
2023/05/23 06:24:24;;;;;;;;;;;;;;;16.82;84.38;101819.50;4995193;28;19993;-66
2023/05/23 06:26:49;;;;;;;;;;;;;;;16.81;83.88;101825.91;4995412;28;19918;-69
2023/05/23 06:29:15;;;;;;;;;;;;;;;16.78;84.37;101822.72;4995562;28;19953;-66
2023/05/23 06:31:40;;;;;;;;;;;;;;;16.82;85.04;101819.50;4998889;28;19920;-66
2023/05/23 06:34:05;;;;;;;;;;;;;;;16.91;84.68;101823.81;5012968;28;20008;-64
2023/05/23 06:36:31;;;;;;;;;;;;;;;17.01;85.32;101823.56;5001900;28;19914;-70
2023/05/23 06:38:56;;;;;;;;;;;;;;;17.11;85.00;101809.88;4994680;28;19964;-68
2023/05/23 06:41:21;;;;;;;;;;;;;;;17.07;81.74;101822.88;4995183;28;19914;-66
2023/05/23 06:43:47;;;;;;;;;;;;;;;16.89;81.51;101825.84;4994892;28;20367;-64
2023/05/23 06:46:14;;;;;;;;;;;;;;;16.81;82.42;101825.06;4994698;28;20358;-67
2023/05/23 06:48:39;;;;;;;;;;;;;;;16.91;82.59;101823.81;4994950;28;20293;-66
2023/05/23 06:51:05;;;;;;;;;;;;;;;17.09;82.91;101814.63;4994682;28;20378;-66
2023/05/23 06:53:30;;;;;;;;;;;;;;;17.31;82.60;101819.13;4994492;28;19917;-66
2023/05/23 06:55:59;;;;;;;;;;;;;;;17.36;81.49;101818.63;4994472;28;20445;-66
2023/05/23 06:58:25;;;;;;;;;;;;;;;17.41;81.61;101822.44;4988433;28;20400;-67
2023/05/23 07:00:51;;;;;;;;;;;;;;;17.37;81.97;101817.59;4959207;28;19914;-65
2023/05/23 07:03:16;;;;;;;;;;;;;;;17.34;80.59;101819.59;4976450;28;20006;-65
2023/05/23 07:05:41;;;;;;;;;;;;;;;17.37;77.60;101815.75;4977319;28;20374;-66
2023/05/23 07:08:09;;;;;;;;;;;;;;;17.51;76.06;101812.22;4983606;28;20346;-66
2023/05/23 07:10:35;;;;;;;;;;;;;;;17.71;76.25;101814.44;4995783;28;19914;-66
2023/05/23 07:13:00;;;;;;;;;;;;;;;17.79;75.99;101823.28;4995835;28;19918;-66
2023/05/23 07:15:25;;;;;;;;;;;;;;;17.79;75.69;101812.50;4989908;28;20008;-66
2023/05/23 07:17:51;;;;;;;;;;;;;;;17.74;73.38;101816.75;4994507;28;19914;-64
2023/05/23 07:20:16;;;;;;;;;;;;;;;17.75;75.02;101811.19;4959833;28;19921;-65
2023/05/23 07:22:42;;;;;;;;;;;;;;;17.79;74.67;101809.78;4994728;28;19926;-65
2023/05/23 07:25:08;;;;;;;;;;;;;;;17.81;74.20;101804.22;4994830;28;19914;-65
2023/05/23 07:27:33;;;;;;;;;;;;;;;17.82;75.09;101801.34;4995688;28;19914;-69
2023/05/23 07:29:59;;;;;;;;;;;;;;;17.90;75.38;101808.50;4994706;28;19918;-67
2023/05/23 07:32:24;;;;;;;;;;;;;;;17.97;74.97;101809.44;4977538;28;19969;-67
2023/05/23 07:34:49;;;;;;;;;;;;;;;18.03;72.52;101799.78;4994931;28;19922;-66
2023/05/23 07:37:14;;;;;;;;;;;;;;;18.08;72.47;101800.88;4994624;28;19921;-69
2023/05/23 07:39:40;;;;;;;;;;;;;;;18.17;72.96;101804.31;4996142;28;19914;-67
2023/05/23 07:42:05;;;;;;;;;;;;;;;18.26;72.79;101803.19;4995760;28;19914;-65
2023/05/23 07:44:31;;;;;;;;;;;;;;;18.22;73.10;101800.06;4979027;28;20008;-63
2023/05/23 07:47:03;;;;;;;;;;;;;;;18.17;71.61;101801.59;5026689;27;3604792;-68
2023/05/23 07:49:29;;;;;;;;;;;;;;;18.18;70.33;101793.34;5152917;27;19916;-65
2023/05/23 07:51:54;;;;;;;;;;;;;;;18.25;68.96;101802.38;5152598;27;20002;-65
2023/05/23 07:54:19;;;;;;;;;;;;;;;18.30;69.60;101800.97;5134599;27;19911;-65
2023/05/23 07:56:45;;;;;;;;;;;;;;;18.33;67.51;101803.28;5152144;27;20414;-66
2023/05/23 07:59:10;;;;;;;;;;;;;;;18.36;67.98;101795.66;5133857;27;19915;-68
2023/05/23 08:01:36;;;;;;;;;;;;;;;18.35;65.37;101798.53;5151924;27;19912;-65
2023/05/23 08:04:02;;;;;;;;;;;;;;;18.21;65.01;101795.69;5151200;27;19934;-66
2023/05/23 08:06:28;;;;;;;;;;;;;;;18.11;65.42;101794.28;5151090;27;19999;-66
2023/05/23 08:08:53;;;;;;;;;;;;;;;18.04;63.94;101793.34;5151295;27;19911;-65
2023/05/23 08:11:18;;;;;;;;;;;;;;;17.98;65.69;101794.09;5151050;27;20041;-68
2023/05/23 08:13:44;;;;;;;;;;;;;;;18.09;65.48;101793.63;5151190;27;19911;-64
2023/05/23 08:16:09;;;;;;;;;;;;;;;18.30;65.29;101798.28;5132389;27;19980;-67
2023/05/23 08:18:35;;;;;;;;;;;;;;;18.46;65.08;101798.03;5115583;27;19915;-68
2023/05/23 08:21:01;;;;;;;;;;;;;;;18.62;65.48;101797.84;5151166;27;19919;-64
2023/05/23 08:23:27;;;;;;;;;;;;;;;18.67;64.29;101799.97;5150980;27;20030;-66
2023/05/23 08:25:54;;;;;;;;;;;;;;;18.57;64.20;101794.88;5151102;27;20435;-67
2023/05/23 08:28:20;;;;;;;;;;;;;;;18.51;65.17;101798.31;5150936;27;19918;-64
2023/05/23 08:30:45;;;;;;;;;;;;;;;18.50;61.52;101788.53;5132154;27;19916;-63
2023/05/23 08:33:11;;;;;;;;;;;;;;;18.53;62.09;101789.03;5150516;27;19933;-67
2023/05/23 08:35:36;;;;;;;;;;;;;;;18.69;62.08;101789.81;5131954;27;19972;-65
2023/05/23 08:38:03;;;;;;;;;;;;;;;18.74;61.58;101790.09;5141402;27;19912;-63
2023/05/23 08:40:30;;;;;;;;;;;;;;;18.70;61.61;101789.63;5150551;27;20343;-65
2023/05/23 08:42:55;;;;;;;;;;;;;;;18.60;61.46;101785.56;5146188;27;19916;-63
2023/05/23 08:45:23;;;;;;;;;;;;;;;18.53;60.30;101777.41;5149094;27;19960;-65
2023/05/23 08:47:50;;;;;;;;;;;;;;;18.55;60.59;101780.72;5150619;27;19915;-64
2023/05/23 08:50:16;;;;;;;;;;;;;;;18.63;61.37;101783.34;5150689;27;20010;-65
2023/05/23 08:53:01;;;;;;;;;;;;;;;18.70;60.76;101789.63;5139814;27;19995;-69
2023/05/23 08:55:27;;;;;;;;;;;;;;;18.85;60.62;101781.50;5111015;28;19912;-62
2023/05/23 08:57:53;;;;;;;;;;;;;;;18.97;60.37;101781.81;5119019;28;19915;-65
2023/05/23 09:00:19;;;;;;;;;;;;;;;19.03;58.97;101781.03;5116053;28;20041;-67
2023/05/23 09:02:45;;;;;;;;;;;;;;;19.05;59.24;101781.69;5115888;28;20381;-65
2023/05/23 09:05:11;;;;;;;;;;;;;;;18.95;60.72;101786.56;5097523;28;19912;-66
2023/05/23 09:07:37;;;;;;;;;;;;;;;18.83;60.74;101783.56;5100340;27;19966;-65
2023/05/23 09:10:04;;;;;;;;;;;;;;;18.77;60.54;101774.34;5119779;27;20011;-68
2023/05/23 09:12:29;;;;;;;;;;;;;;;18.86;57.90;101778.63;5128580;27;20019;-66
2023/05/23 09:14:55;;;;;;;;;;;;;;;18.90;55.24;101784.47;5135847;27;20010;-65
2023/05/23 09:17:21;;;;;;;;;;;;;;;18.94;57.12;101779.50;5121054;27;20274;-66
2023/05/23 09:19:47;;;;;;;;;;;;;;;19.00;58.07;101778.72;5124878;27;19911;-65
2023/05/23 09:22:12;;;;;;;;;;;;;;;19.05;57.71;101777.13;5098752;28;20327;-64
2023/05/23 09:24:38;;;;;;;;;;;;;;;19.06;57.46;101778.78;5116554;28;19950;-68
2023/05/23 09:27:07;;;;;;;;;;;;;;;19.05;58.25;101770.88;5116565;28;19919;-65
2023/05/23 09:29:42;;;;;;;;;;;;;;;19.08;59.02;101775.88;5116801;28;20279;-65
2023/05/23 09:32:14;;;;;;;;;;;;;;;19.13;59.11;101778.88;5119977;28;19911;-65
2023/05/23 09:34:49;;;;;;;;;;;;;;;19.16;58.89;101779.31;5116163;28;20274;-66
2023/05/23 09:37:17;;;;;;;;;;;;;;;19.08;57.38;101775.88;5097590;28;19912;-65
2023/05/23 09:39:47;;;;;;;;;;;;;;;19.08;57.99;101782.16;5097173;28;20288;-65
2023/05/23 09:42:17;;;;;;;;;;;;;;;19.15;56.90;101782.19;5115538;28;20389;-65
2023/05/23 09:44:42;;;;;;;;;;;;;;;19.09;57.37;101777.59;5114881;28;19912;-65
2023/05/23 09:47:08;;;;;;;;;;;;;;;19.07;58.10;101774.22;5115338;28;19923;-67
2023/05/23 09:49:34;;;;;;;;;;;;;;;19.10;57.78;101779.25;5115111;28;19916;-64
2023/05/23 09:52:00;;;;;;;;;;;;;;;19.15;57.26;101779.50;5115261;28;20011;-65
2023/05/23 09:54:25;;;;;;;;;;;;;;;19.15;55.67;101776.81;5114962;28;19984;-65
2023/05/23 09:56:52;;;;;;;;;;;;;;;19.14;56.70;101780.53;5096745;28;19951;-64
2023/05/23 09:59:23;;;;;;;;;;;;;;;19.31;56.53;101771.09;5115295;28;20403;-64
2023/05/23 10:01:50;;;;;;;;;;;;;;;19.55;53.82;101775.28;5115345;28;19918;-64
2023/05/23 10:04:16;;;;;;;;;;;;;;;19.75;55.30;101778.13;5115281;28;19919;-64
2023/05/23 10:06:48;;;;;;;;;;;;;;;19.78;55.30;101772.31;5115225;28;19912;-63
2023/05/23 10:09:16;;;;;;;;;;;;;;;19.74;56.39;101771.03;5114121;28;19916;-65
2023/05/23 10:11:42;;;;;;;;;;;;;;;19.71;54.10;101776.84;5115044;28;19911;-63
2023/05/23 10:14:08;;;;;;;;;;;;;;;19.64;54.20;101775.94;5115158;28;19933;-64
2023/05/23 10:16:48;;;;;;;;;;;;;;;19.54;55.27;101770.06;5115068;28;19956;-63
2023/05/23 10:19:19;;;;;;;;;;;;;;;19.37;55.72;101775.75;5127912;27;20320;-66
2023/05/23 10:21:50;;;;;;;;;;;;;;;19.26;56.14;101770.88;5134966;27;20190;-65
2023/05/23 10:24:15;;;;;;;;;;;;;;;19.25;55.72;101757.56;5135026;27;19965;-63
2023/05/23 10:26:42;;;;;;;;;;;;;;;19.41;55.80;101760.81;5131688;27;19971;-65
2023/05/23 10:29:07;;;;;;;;;;;;;;;19.54;55.82;101764.66;5128917;27;20375;-66
2023/05/23 10:31:34;;;;;;;;;;;;;;;19.54;54.07;101762.78;5123757;27;19961;-65
2023/05/23 10:34:07;;;;;;;;;;;;;;;19.56;54.15;101763.44;5126054;27;20398;-67
2023/05/23 10:36:37;;;;;;;;;;;;;;;19.65;52.28;101764.09;5123169;27;19939;-65
2023/05/23 10:39:03;;;;;;;;;;;;;;;19.72;51.07;101759.59;5134938;27;19912;-66
2023/05/23 10:41:32;;;;;;;;;;;;;;;19.86;52.27;101761.34;5135516;27;19918;-64
2023/05/23 10:43:58;;;;;;;;;;;;;;;20.06;52.80;101762.28;5126045;27;19918;-65
2023/05/23 10:46:43;;;;;;;;;;;;;;;20.28;53.17;101764.88;5121224;27;19998;-68
2023/05/23 10:49:10;;;;;;;;;;;;;;;20.40;51.70;101755.16;5121987;27;19916;-66
2023/05/23 10:51:37;;;;;;;;;;;;;;;20.40;51.74;101749.75;5123651;27;20054;-63
2023/05/23 10:54:09;;;;;;;;;;;;;;;20.44;52.11;101763.69;5113448;28;19916;-64
2023/05/23 10:56:35;;;;;;;;;;;;;;;20.43;50.41;101749.34;5113591;28;19912;-64
2023/05/23 10:59:05;;;;;;;;;;;;;;;20.47;51.66;101761.41;5095652;28;20283;-64
2023/05/23 11:01:30;;;;;;;;;;;;;;;20.42;50.10;101748.50;5094988;28;20279;-67
2023/05/23 11:03:55;;;;;;;;;;;;;;;20.41;50.10;101754.13;5113685;28;19922;-64
2023/05/23 11:06:27;;;;;;;;;;;;;;;20.47;50.96;101752.47;5113103;28;19915;-63
2023/05/23 11:09:00;;;;;;;;;;;;;;;20.55;50.86;101746.88;5114405;28;20375;-63
2023/05/23 11:11:45;;;;;;;;;;;;;;;20.62;50.54;101748.56;5122082;27;19946;-66
2023/05/23 11:14:11;;;;;;;;;;;;;;;20.70;50.11;101742.94;5124150;27;19911;-65
2023/05/23 11:16:40;;;;;;;;;;;;;;;20.68;48.80;101742.31;5123141;27;19973;-63
2023/05/23 11:19:17;;;;;;;;;;;;;;;20.69;48.55;101735.88;5121910;27;19916;-62
2023/05/23 11:21:43;;;;;;;;;;;;;;;20.63;48.42;101734.00;5121597;27;20060;-63
2023/05/23 11:24:09;;;;;;;;;;;;;;;20.67;49.08;101729.84;5121319;27;19957;-66
2023/05/23 11:26:34;;;;;;;;;;;;;;;20.78;50.27;101730.25;5118125;27;19919;-63
2023/05/23 11:29:02;;;;;;;;;;;;;;;20.88;49.46;101731.53;5105211;28;19916;-63
2023/05/23 11:31:28;;;;;;;;;;;;;;;20.98;48.65;101717.56;5124151;27;19919;-66
2023/05/23 11:33:53;;;;;;;;;;;;;;;21.03;46.31;101715.91;5104780;28;19911;-65
2023/05/23 11:36:22;;;;;;;;;;;;;;;21.15;46.55;101718.84;5115612;28;20286;-65
2023/05/23 11:38:51;;;;;;;;;;;;;;;21.23;46.82;101723.19;5120899;27;19918;-66
2023/05/23 11:41:17;;;;;;;;;;;;;;;21.26;48.02;101712.81;5123360;27;19912;-65
2023/05/23 11:43:51;;;;;;;;;;;;;;;21.32;46.43;101719.25;5121117;28;19957;-63
2023/05/23 11:46:19;;;;;;;;;;;;;;;21.41;45.49;101717.19;5123471;28;19923;-64
2023/05/23 11:48:47;;;;;;;;;;;;;;;21.40;44.30;101710.94;5124511;28;19939;-63
2023/05/23 11:51:13;;;;;;;;;;;;;;;21.39;44.05;101705.69;5125362;28;19919;-66
2023/05/23 11:53:38;;;;;;;;;;;;;;;21.47;44.26;101697.34;5126122;28;19912;-64
2023/05/23 11:56:04;;;;;;;;;;;;;;;21.46;44.31;101706.53;5124379;28;20309;-63
2023/05/23 11:58:30;;;;;;;;;;;;;;;21.38;44.44;101709.44;5120265;28;19911;-65
2023/05/23 12:01:03;;;;;;;;;;;;;;;21.38;46.25;101704.03;5121001;28;20006;-64
2023/05/23 12:03:28;;;;;;;;;;;;;;;21.41;45.85;101687.38;5122227;28;19912;-65
2023/05/23 12:05:54;;;;;;;;;;;;;;;21.41;45.18;101687.38;5122215;28;20007;-63
2023/05/23 12:08:19;;;;;;;;;;;;;;;21.40;44.15;101685.72;5121420;28;20278;-64
